sensor_id;sensor_type;location;lat;lon;timestamp;P1;durP1;ratioP1;P2;durP2;ratioP2
77026;SDS011;65956;52.986;17.490;2023-07-13T00:00:42;7.90;;;5.10;;
77026;SDS011;65956;52.986;17.490;2023-07-13T00:03:28;10.10;;;5.30;;
77026;SDS011;65956;52.986;17.490;2023-07-13T00:06:01;8.00;;;4.90;;
77026;SDS011;65956;52.986;17.490;2023-07-13T00:08:30;14.40;;;6.50;;
77026;SDS011;65956;52.986;17.490;2023-07-13T00:13:24;16.90;;;9.10;;
77026;SDS011;65956;52.986;17.490;2023-07-13T00:15:50;9.70;;;6.20;;
77026;SDS011;65956;52.986;17.490;2023-07-13T00:18:17;9.10;;;6.00;;
77026;SDS011;65956;52.986;17.490;2023-07-13T00:20:43;8.30;;;5.40;;
77026;SDS011;65956;52.986;17.490;2023-07-13T00:23:09;8.30;;;5.30;;
77026;SDS011;65956;52.986;17.490;2023-07-13T00:25:35;9.00;;;5.50;;
77026;SDS011;65956;52.986;17.490;2023-07-13T00:28:01;8.80;;;5.40;;
77026;SDS011;65956;52.986;17.490;2023-07-13T00:30:29;8.50;;;5.10;;
77026;SDS011;65956;52.986;17.490;2023-07-13T00:32:57;8.90;;;5.00;;
77026;SDS011;65956;52.986;17.490;2023-07-13T00:35:23;7.60;;;4.90;;
77026;SDS011;65956;52.986;17.490;2023-07-13T00:37:50;7.50;;;4.80;;
77026;SDS011;65956;52.986;17.490;2023-07-13T00:40:17;8.00;;;4.50;;
77026;SDS011;65956;52.986;17.490;2023-07-13T00:42:44;8.20;;;4.50;;
77026;SDS011;65956;52.986;17.490;2023-07-13T00:47:43;7.20;;;4.30;;
77026;SDS011;65956;52.986;17.490;2023-07-13T00:50:10;7.00;;;4.30;;
77026;SDS011;65956;52.986;17.490;2023-07-13T00:52:41;9.00;;;4.70;;
77026;SDS011;65956;52.986;17.490;2023-07-13T00:55:10;6.30;;;4.80;;
77026;SDS011;65956;52.986;17.490;2023-07-13T00:57:38;6.90;;;4.60;;
77026;SDS011;65956;52.986;17.490;2023-07-13T01:00:07;8.60;;;4.80;;
77026;SDS011;65956;52.986;17.490;2023-07-13T01:02:38;7.20;;;4.70;;
77026;SDS011;65956;52.986;17.490;2023-07-13T01:05:12;7.60;;;4.60;;
77026;SDS011;65956;52.986;17.490;2023-07-13T01:07:43;6.70;;;4.30;;
77026;SDS011;65956;52.986;17.490;2023-07-13T01:10:10;8.80;;;4.40;;
77026;SDS011;65956;52.986;17.490;2023-07-13T01:12:38;7.80;;;4.30;;
77026;SDS011;65956;52.986;17.490;2023-07-13T01:15:04;7.70;;;3.90;;
77026;SDS011;65956;52.986;17.490;2023-07-13T01:17:51;7.40;;;4.10;;
77026;SDS011;65956;52.986;17.490;2023-07-13T01:20:17;6.90;;;4.90;;
77026;SDS011;65956;52.986;17.490;2023-07-13T01:22:44;8.40;;;4.50;;
77026;SDS011;65956;52.986;17.490;2023-07-13T01:25:10;8.80;;;4.40;;
77026;SDS011;65956;52.986;17.490;2023-07-13T01:27:36;7.40;;;4.40;;
77026;SDS011;65956;52.986;17.490;2023-07-13T01:30:02;7.90;;;4.10;;
77026;SDS011;65956;52.986;17.490;2023-07-13T01:32:29;7.50;;;3.60;;
77026;SDS011;65956;52.986;17.490;2023-07-13T01:34:57;6.20;;;3.60;;
77026;SDS011;65956;52.986;17.490;2023-07-13T01:37:23;9.40;;;3.90;;
77026;SDS011;65956;52.986;17.490;2023-07-13T01:39:51;7.10;;;4.00;;
77026;SDS011;65956;52.986;17.490;2023-07-13T01:42:17;6.40;;;3.90;;
77026;SDS011;65956;52.986;17.490;2023-07-13T01:45:01;7.50;;;3.60;;
77026;SDS011;65956;52.986;17.490;2023-07-13T01:47:30;7.60;;;4.20;;
77026;SDS011;65956;52.986;17.490;2023-07-13T01:49:56;6.20;;;3.60;;
77026;SDS011;65956;52.986;17.490;2023-07-13T01:52:25;4.80;;;3.00;;
77026;SDS011;65956;52.986;17.490;2023-07-13T01:54:51;6.80;;;3.70;;
77026;SDS011;65956;52.986;17.490;2023-07-13T01:57:17;7.00;;;3.80;;
77026;SDS011;65956;52.986;17.490;2023-07-13T01:59:43;5.80;;;3.10;;
77026;SDS011;65956;52.986;17.490;2023-07-13T02:02:09;6.80;;;3.60;;
77026;SDS011;65956;52.986;17.490;2023-07-13T02:04:35;8.70;;;4.00;;
77026;SDS011;65956;52.986;17.490;2023-07-13T02:07:00;9.10;;;4.30;;
77026;SDS011;65956;52.986;17.490;2023-07-13T02:09:26;8.10;;;4.20;;
77026;SDS011;65956;52.986;17.490;2023-07-13T02:11:52;11.80;;;5.00;;
77026;SDS011;65956;52.986;17.490;2023-07-13T02:14:18;8.40;;;4.70;;
77026;SDS011;65956;52.986;17.490;2023-07-13T02:16:44;8.20;;;4.70;;
77026;SDS011;65956;52.986;17.490;2023-07-13T02:19:10;8.90;;;5.00;;
77026;SDS011;65956;52.986;17.490;2023-07-13T02:21:36;8.30;;;4.80;;
77026;SDS011;65956;52.986;17.490;2023-07-13T02:24:02;8.90;;;4.90;;
77026;SDS011;65956;52.986;17.490;2023-07-13T02:26:28;7.50;;;5.10;;
77026;SDS011;65956;52.986;17.490;2023-07-13T02:28:54;9.50;;;5.50;;
77026;SDS011;65956;52.986;17.490;2023-07-13T02:31:20;10.10;;;5.80;;
77026;SDS011;65956;52.986;17.490;2023-07-13T02:33:46;9.30;;;6.20;;
77026;SDS011;65956;52.986;17.490;2023-07-13T02:36:13;10.30;;;6.40;;
77026;SDS011;65956;52.986;17.490;2023-07-13T02:38:43;10.40;;;5.90;;
77026;SDS011;65956;52.986;17.490;2023-07-13T02:41:10;8.40;;;5.60;;
77026;SDS011;65956;52.986;17.490;2023-07-13T02:43:36;10.10;;;5.80;;
77026;SDS011;65956;52.986;17.490;2023-07-13T02:46:03;8.90;;;5.70;;
77026;SDS011;65956;52.986;17.490;2023-07-13T02:48:36;11.00;;;5.80;;
77026;SDS011;65956;52.986;17.490;2023-07-13T02:51:03;8.80;;;6.10;;
77026;SDS011;65956;52.986;17.490;2023-07-13T02:53:30;7.30;;;5.80;;
77026;SDS011;65956;52.986;17.490;2023-07-13T02:55:57;9.00;;;6.40;;
77026;SDS011;65956;52.986;17.490;2023-07-13T02:58:23;9.10;;;5.90;;
77026;SDS011;65956;52.986;17.490;2023-07-13T03:00:49;8.30;;;5.70;;
77026;SDS011;65956;52.986;17.490;2023-07-13T03:03:16;8.60;;;5.80;;
77026;SDS011;65956;52.986;17.490;2023-07-13T03:05:43;8.80;;;5.40;;
77026;SDS011;65956;52.986;17.490;2023-07-13T03:08:16;7.40;;;5.00;;
77026;SDS011;65956;52.986;17.490;2023-07-13T03:10:44;10.30;;;5.30;;
77026;SDS011;65956;52.986;17.490;2023-07-13T03:13:10;11.30;;;5.50;;
77026;SDS011;65956;52.986;17.490;2023-07-13T03:15:37;8.30;;;5.20;;
77026;SDS011;65956;52.986;17.490;2023-07-13T03:18:03;8.90;;;5.80;;
77026;SDS011;65956;52.986;17.490;2023-07-13T03:20:32;7.80;;;5.00;;
77026;SDS011;65956;52.986;17.490;2023-07-13T03:22:59;8.70;;;5.70;;
77026;SDS011;65956;52.986;17.490;2023-07-13T03:25:25;9.40;;;5.80;;
77026;SDS011;65956;52.986;17.490;2023-07-13T03:27:52;8.30;;;5.20;;
77026;SDS011;65956;52.986;17.490;2023-07-13T03:30:18;9.10;;;5.60;;
77026;SDS011;65956;52.986;17.490;2023-07-13T03:32:44;8.10;;;5.00;;
77026;SDS011;65956;52.986;17.490;2023-07-13T03:35:10;9.00;;;5.10;;
77026;SDS011;65956;52.986;17.490;2023-07-13T03:37:36;8.10;;;5.10;;
77026;SDS011;65956;52.986;17.490;2023-07-13T03:40:10;8.40;;;5.30;;
77026;SDS011;65956;52.986;17.490;2023-07-13T03:42:37;7.20;;;4.60;;
77026;SDS011;65956;52.986;17.490;2023-07-13T03:45:03;8.10;;;4.70;;
77026;SDS011;65956;52.986;17.490;2023-07-13T03:47:30;8.30;;;4.90;;
77026;SDS011;65956;52.986;17.490;2023-07-13T03:49:56;8.90;;;5.80;;
77026;SDS011;65956;52.986;17.490;2023-07-13T03:52:22;9.00;;;5.40;;
77026;SDS011;65956;52.986;17.490;2023-07-13T03:54:48;12.50;;;5.70;;
77026;SDS011;65956;52.986;17.490;2023-07-13T03:57:15;10.50;;;6.10;;
77026;SDS011;65956;52.986;17.490;2023-07-13T03:59:41;11.80;;;6.00;;
77026;SDS011;65956;52.986;17.490;2023-07-13T04:02:07;10.60;;;5.40;;
77026;SDS011;65956;52.986;17.490;2023-07-13T04:04:33;8.60;;;4.90;;
77026;SDS011;65956;52.986;17.490;2023-07-13T04:06:59;13.10;;;5.80;;
77026;SDS011;65956;52.986;17.490;2023-07-13T04:09:25;11.50;;;5.40;;
77026;SDS011;65956;52.986;17.490;2023-07-13T04:11:51;10.50;;;5.10;;
77026;SDS011;65956;52.986;17.490;2023-07-13T04:14:17;7.70;;;3.80;;
77026;SDS011;65956;52.986;17.490;2023-07-13T04:16:43;6.50;;;3.60;;
77026;SDS011;65956;52.986;17.490;2023-07-13T04:19:09;6.10;;;3.10;;
77026;SDS011;65956;52.986;17.490;2023-07-13T04:21:36;7.80;;;3.40;;
77026;SDS011;65956;52.986;17.490;2023-07-13T04:24:03;7.60;;;3.30;;
77026;SDS011;65956;52.986;17.490;2023-07-13T04:26:29;8.90;;;3.70;;
77026;SDS011;65956;52.986;17.490;2023-07-13T04:28:56;7.70;;;3.60;;
77026;SDS011;65956;52.986;17.490;2023-07-13T04:31:23;7.40;;;3.20;;
77026;SDS011;65956;52.986;17.490;2023-07-13T04:33:49;8.30;;;3.40;;
77026;SDS011;65956;52.986;17.490;2023-07-13T04:36:16;7.40;;;3.00;;
77026;SDS011;65956;52.986;17.490;2023-07-13T04:38:42;6.60;;;2.80;;
77026;SDS011;65956;52.986;17.490;2023-07-13T04:41:09;6.70;;;2.70;;
77026;SDS011;65956;52.986;17.490;2023-07-13T04:43:35;9.20;;;2.80;;
77026;SDS011;65956;52.986;17.490;2023-07-13T04:46:05;5.80;;;2.80;;
77026;SDS011;65956;52.986;17.490;2023-07-13T04:48:33;6.10;;;2.70;;
77026;SDS011;65956;52.986;17.490;2023-07-13T04:51:00;6.60;;;2.60;;
77026;SDS011;65956;52.986;17.490;2023-07-13T04:53:27;7.40;;;2.90;;
77026;SDS011;65956;52.986;17.490;2023-07-13T04:55:55;6.60;;;2.90;;
77026;SDS011;65956;52.986;17.490;2023-07-13T04:58:22;7.10;;;3.20;;
77026;SDS011;65956;52.986;17.490;2023-07-13T05:00:49;6.00;;;3.20;;
77026;SDS011;65956;52.986;17.490;2023-07-13T05:03:15;7.30;;;3.10;;
77026;SDS011;65956;52.986;17.490;2023-07-13T05:05:42;7.50;;;3.20;;
77026;SDS011;65956;52.986;17.490;2023-07-13T05:08:08;6.00;;;3.00;;
77026;SDS011;65956;52.986;17.490;2023-07-13T05:10:34;8.10;;;3.60;;
77026;SDS011;65956;52.986;17.490;2023-07-13T05:13:01;6.20;;;3.30;;
77026;SDS011;65956;52.986;17.490;2023-07-13T05:15:27;5.10;;;2.90;;
77026;SDS011;65956;52.986;17.490;2023-07-13T05:17:53;7.30;;;2.90;;
77026;SDS011;65956;52.986;17.490;2023-07-13T05:20:19;5.60;;;2.70;;
77026;SDS011;65956;52.986;17.490;2023-07-13T05:22:45;7.20;;;2.60;;
77026;SDS011;65956;52.986;17.490;2023-07-13T05:25:14;5.10;;;2.50;;
77026;SDS011;65956;52.986;17.490;2023-07-13T05:27:40;7.00;;;3.00;;
77026;SDS011;65956;52.986;17.490;2023-07-13T05:30:06;7.60;;;2.70;;
77026;SDS011;65956;52.986;17.490;2023-07-13T05:32:36;5.90;;;2.40;;
77026;SDS011;65956;52.986;17.490;2023-07-13T05:35:02;5.80;;;2.70;;
77026;SDS011;65956;52.986;17.490;2023-07-13T05:37:28;7.50;;;2.60;;
77026;SDS011;65956;52.986;17.490;2023-07-13T05:39:54;5.60;;;2.60;;
77026;SDS011;65956;52.986;17.490;2023-07-13T05:42:20;6.50;;;2.60;;
77026;SDS011;65956;52.986;17.490;2023-07-13T05:44:46;6.20;;;2.50;;
77026;SDS011;65956;52.986;17.490;2023-07-13T05:47:12;5.30;;;2.20;;
77026;SDS011;65956;52.986;17.490;2023-07-13T05:49:39;6.20;;;2.50;;
77026;SDS011;65956;52.986;17.490;2023-07-13T05:52:06;6.50;;;2.10;;
77026;SDS011;65956;52.986;17.490;2023-07-13T05:54:32;6.80;;;2.00;;
77026;SDS011;65956;52.986;17.490;2023-07-13T05:56:58;5.50;;;2.10;;
77026;SDS011;65956;52.986;17.490;2023-07-13T05:59:24;4.90;;;2.10;;
77026;SDS011;65956;52.986;17.490;2023-07-13T06:01:51;6.30;;;2.10;;
77026;SDS011;65956;52.986;17.490;2023-07-13T06:04:18;6.00;;;2.00;;
77026;SDS011;65956;52.986;17.490;2023-07-13T06:06:45;5.90;;;2.20;;
77026;SDS011;65956;52.986;17.490;2023-07-13T06:09:11;7.70;;;2.10;;
77026;SDS011;65956;52.986;17.490;2023-07-13T06:11:37;5.80;;;2.10;;
77026;SDS011;65956;52.986;17.490;2023-07-13T06:14:03;6.20;;;2.00;;
77026;SDS011;65956;52.986;17.490;2023-07-13T06:16:29;5.40;;;2.20;;
77026;SDS011;65956;52.986;17.490;2023-07-13T06:18:55;5.00;;;2.10;;
77026;SDS011;65956;52.986;17.490;2023-07-13T06:21:22;4.90;;;2.00;;
77026;SDS011;65956;52.986;17.490;2023-07-13T06:23:49;3.70;;;1.50;;
77026;SDS011;65956;52.986;17.490;2023-07-13T06:26:17;5.50;;;1.80;;
77026;SDS011;65956;52.986;17.490;2023-07-13T06:28:46;6.80;;;1.80;;
77026;SDS011;65956;52.986;17.490;2023-07-13T06:31:12;6.10;;;1.90;;
77026;SDS011;65956;52.986;17.490;2023-07-13T06:33:39;4.80;;;1.90;;
77026;SDS011;65956;52.986;17.490;2023-07-13T06:36:07;6.50;;;2.00;;
77026;SDS011;65956;52.986;17.490;2023-07-13T06:38:34;4.20;;;1.80;;
77026;SDS011;65956;52.986;17.490;2023-07-13T06:41:01;6.10;;;1.70;;
77026;SDS011;65956;52.986;17.490;2023-07-13T06:43:27;5.40;;;2.10;;
77026;SDS011;65956;52.986;17.490;2023-07-13T06:45:54;5.10;;;1.80;;
77026;SDS011;65956;52.986;17.490;2023-07-13T06:48:21;5.40;;;2.00;;
77026;SDS011;65956;52.986;17.490;2023-07-13T06:50:48;6.20;;;2.10;;
77026;SDS011;65956;52.986;17.490;2023-07-13T06:53:19;3.90;;;1.70;;
77026;SDS011;65956;52.986;17.490;2023-07-13T06:55:45;6.00;;;2.00;;
77026;SDS011;65956;52.986;17.490;2023-07-13T06:58:12;5.00;;;1.90;;
77026;SDS011;65956;52.986;17.490;2023-07-13T07:00:38;6.50;;;2.10;;
77026;SDS011;65956;52.986;17.490;2023-07-13T07:03:06;6.20;;;2.20;;
77026;SDS011;65956;52.986;17.490;2023-07-13T07:05:32;3.80;;;1.70;;
77026;SDS011;65956;52.986;17.490;2023-07-13T07:07:58;5.40;;;2.00;;
77026;SDS011;65956;52.986;17.490;2023-07-13T07:10:25;4.50;;;1.70;;
77026;SDS011;65956;52.986;17.490;2023-07-13T07:12:51;5.90;;;2.10;;
77026;SDS011;65956;52.986;17.490;2023-07-13T07:15:18;5.70;;;2.30;;
77026;SDS011;65956;52.986;17.490;2023-07-13T07:17:44;5.40;;;2.20;;
77026;SDS011;65956;52.986;17.490;2023-07-13T07:20:10;5.60;;;2.10;;
77026;SDS011;65956;52.986;17.490;2023-07-13T07:22:36;6.10;;;2.10;;
77026;SDS011;65956;52.986;17.490;2023-07-13T07:25:02;4.90;;;1.70;;
77026;SDS011;65956;52.986;17.490;2023-07-13T07:27:28;7.00;;;2.50;;
77026;SDS011;65956;52.986;17.490;2023-07-13T07:29:54;4.80;;;1.80;;
77026;SDS011;65956;52.986;17.490;2023-07-13T07:32:20;4.60;;;1.80;;
77026;SDS011;65956;52.986;17.490;2023-07-13T07:34:46;4.10;;;1.80;;
77026;SDS011;65956;52.986;17.490;2023-07-13T07:37:13;5.70;;;1.80;;
77026;SDS011;65956;52.986;17.490;2023-07-13T07:39:39;6.30;;;2.10;;
77026;SDS011;65956;52.986;17.490;2023-07-13T07:42:06;6.80;;;2.10;;
77026;SDS011;65956;52.986;17.490;2023-07-13T07:44:33;4.30;;;2.00;;
77026;SDS011;65956;52.986;17.490;2023-07-13T07:46:59;3.90;;;1.70;;
77026;SDS011;65956;52.986;17.490;2023-07-13T07:49:26;4.80;;;1.80;;
77026;SDS011;65956;52.986;17.490;2023-07-13T07:51:52;4.30;;;1.90;;
77026;SDS011;65956;52.986;17.490;2023-07-13T07:54:18;4.60;;;2.00;;
77026;SDS011;65956;52.986;17.490;2023-07-13T07:56:44;3.90;;;1.60;;
77026;SDS011;65956;52.986;17.490;2023-07-13T07:59:10;5.40;;;1.80;;
77026;SDS011;65956;52.986;17.490;2023-07-13T08:01:36;4.30;;;1.80;;
77026;SDS011;65956;52.986;17.490;2023-07-13T08:04:03;5.40;;;2.00;;
77026;SDS011;65956;52.986;17.490;2023-07-13T08:06:29;6.50;;;1.80;;
77026;SDS011;65956;52.986;17.490;2023-07-13T08:08:59;5.60;;;2.00;;
77026;SDS011;65956;52.986;17.490;2023-07-13T08:11:30;4.80;;;1.90;;
77026;SDS011;65956;52.986;17.490;2023-07-13T08:13:56;5.90;;;1.90;;
77026;SDS011;65956;52.986;17.490;2023-07-13T08:16:22;4.30;;;1.70;;
77026;SDS011;65956;52.986;17.490;2023-07-13T08:18:49;6.10;;;2.10;;
77026;SDS011;65956;52.986;17.490;2023-07-13T08:21:15;5.80;;;1.90;;
77026;SDS011;65956;52.986;17.490;2023-07-13T08:23:41;4.40;;;1.90;;
77026;SDS011;65956;52.986;17.490;2023-07-13T08:26:07;4.00;;;1.80;;
77026;SDS011;65956;52.986;17.490;2023-07-13T08:28:34;4.60;;;2.00;;
77026;SDS011;65956;52.986;17.490;2023-07-13T08:31:00;4.80;;;1.90;;
77026;SDS011;65956;52.986;17.490;2023-07-13T08:33:30;4.00;;;1.80;;
77026;SDS011;65956;52.986;17.490;2023-07-13T08:35:56;5.30;;;1.90;;
77026;SDS011;65956;52.986;17.490;2023-07-13T08:38:22;4.20;;;1.70;;
77026;SDS011;65956;52.986;17.490;2023-07-13T08:40:50;6.40;;;2.30;;
77026;SDS011;65956;52.986;17.490;2023-07-13T08:43:29;4.80;;;2.10;;
77026;SDS011;65956;52.986;17.490;2023-07-13T08:46:02;3.70;;;1.60;;
77026;SDS011;65956;52.986;17.490;2023-07-13T08:48:31;4.90;;;2.00;;
77026;SDS011;65956;52.986;17.490;2023-07-13T08:54:01;4.10;;;1.90;;
77026;SDS011;65956;52.986;17.490;2023-07-13T08:56:31;5.60;;;2.10;;
77026;SDS011;65956;52.986;17.490;2023-07-13T08:59:00;5.00;;;2.00;;
77026;SDS011;65956;52.986;17.490;2023-07-13T09:04:47;6.90;;;2.00;;
77026;SDS011;65956;52.986;17.490;2023-07-13T09:12:40;4.30;;;2.10;;
77026;SDS011;65956;52.986;17.490;2023-07-13T09:15:30;5.70;;;2.00;;
77026;SDS011;65956;52.986;17.490;2023-07-13T09:18:14;6.60;;;2.00;;
77026;SDS011;65956;52.986;17.490;2023-07-13T09:23:47;5.00;;;2.00;;
77026;SDS011;65956;52.986;17.490;2023-07-13T09:26:19;4.70;;;2.10;;
77026;SDS011;65956;52.986;17.490;2023-07-13T09:28:48;5.10;;;2.40;;
77026;SDS011;65956;52.986;17.490;2023-07-13T09:31:20;4.10;;;1.70;;
77026;SDS011;65956;52.986;17.490;2023-07-13T09:33:51;4.70;;;1.70;;
77026;SDS011;65956;52.986;17.490;2023-07-13T09:36:22;4.00;;;2.10;;
77026;SDS011;65956;52.986;17.490;2023-07-13T09:41:47;4.00;;;1.80;;
77026;SDS011;65956;52.986;17.490;2023-07-13T09:44:35;4.70;;;1.80;;
77026;SDS011;65956;52.986;17.490;2023-07-13T09:47:03;5.30;;;2.10;;
77026;SDS011;65956;52.986;17.490;2023-07-13T09:49:42;4.90;;;1.90;;
77026;SDS011;65956;52.986;17.490;2023-07-13T09:52:11;6.00;;;2.00;;
77026;SDS011;65956;52.986;17.490;2023-07-13T09:54:39;3.70;;;1.80;;
77026;SDS011;65956;52.986;17.490;2023-07-13T09:57:13;4.60;;;2.10;;
77026;SDS011;65956;52.986;17.490;2023-07-13T09:59:49;5.50;;;2.10;;
77026;SDS011;65956;52.986;17.490;2023-07-13T10:02:34;4.60;;;1.90;;
77026;SDS011;65956;52.986;17.490;2023-07-13T10:05:03;5.30;;;2.00;;
77026;SDS011;65956;52.986;17.490;2023-07-13T10:07:31;5.90;;;2.00;;
77026;SDS011;65956;52.986;17.490;2023-07-13T10:09:58;4.60;;;2.10;;
77026;SDS011;65956;52.986;17.490;2023-07-13T10:12:29;5.10;;;2.10;;
77026;SDS011;65956;52.986;17.490;2023-07-13T10:15:01;5.30;;;2.00;;
77026;SDS011;65956;52.986;17.490;2023-07-13T10:17:31;4.20;;;1.90;;
77026;SDS011;65956;52.986;17.490;2023-07-13T10:20:02;6.90;;;2.20;;
77026;SDS011;65956;52.986;17.490;2023-07-13T10:25:24;4.60;;;2.10;;
77026;SDS011;65956;52.986;17.490;2023-07-13T10:27:53;6.10;;;2.50;;
77026;SDS011;65956;52.986;17.490;2023-07-13T10:30:25;5.20;;;2.20;;
77026;SDS011;65956;52.986;17.490;2023-07-13T10:32:57;6.30;;;2.60;;
77026;SDS011;65956;52.986;17.490;2023-07-13T10:35:27;4.60;;;2.00;;
77026;SDS011;65956;52.986;17.490;2023-07-13T10:37:57;4.50;;;2.20;;
77026;SDS011;65956;52.986;17.490;2023-07-13T10:40:28;5.70;;;2.40;;
77026;SDS011;65956;52.986;17.490;2023-07-13T10:43:27;4.60;;;2.20;;
77026;SDS011;65956;52.986;17.490;2023-07-13T10:45:59;5.30;;;2.10;;
77026;SDS011;65956;52.986;17.490;2023-07-13T10:48:27;4.80;;;2.10;;
77026;SDS011;65956;52.986;17.490;2023-07-13T10:50:55;4.00;;;1.70;;
77026;SDS011;65956;52.986;17.490;2023-07-13T10:53:31;4.30;;;1.80;;
77026;SDS011;65956;52.986;17.490;2023-07-13T10:56:06;5.40;;;2.00;;
77026;SDS011;65956;52.986;17.490;2023-07-13T10:58:47;4.60;;;2.00;;
77026;SDS011;65956;52.986;17.490;2023-07-13T11:04:19;5.30;;;2.10;;
77026;SDS011;65956;52.986;17.490;2023-07-13T11:06:47;4.20;;;2.00;;
77026;SDS011;65956;52.986;17.490;2023-07-13T11:11:47;4.80;;;2.10;;
77026;SDS011;65956;52.986;17.490;2023-07-13T11:14:34;5.20;;;2.20;;
77026;SDS011;65956;52.986;17.490;2023-07-13T11:22:43;4.80;;;2.40;;
77026;SDS011;65956;52.986;17.490;2023-07-13T11:27:52;3.60;;;2.00;;
77026;SDS011;65956;52.986;17.490;2023-07-13T11:30:49;5.80;;;2.50;;
77026;SDS011;65956;52.986;17.490;2023-07-13T11:33:46;7.50;;;2.50;;
77026;SDS011;65956;52.986;17.490;2023-07-13T11:36:19;5.50;;;2.70;;
77026;SDS011;65956;52.986;17.490;2023-07-13T11:41:37;6.00;;;2.30;;
77026;SDS011;65956;52.986;17.490;2023-07-13T11:44:19;3.70;;;2.20;;
77026;SDS011;65956;52.986;17.490;2023-07-13T11:46:48;5.90;;;2.20;;
77026;SDS011;65956;52.986;17.490;2023-07-13T11:49:20;4.10;;;1.90;;
77026;SDS011;65956;52.986;17.490;2023-07-13T11:51:47;6.60;;;1.80;;
77026;SDS011;65956;52.986;17.490;2023-07-13T11:54:30;4.60;;;2.20;;
77026;SDS011;65956;52.986;17.490;2023-07-13T11:57:23;5.90;;;2.20;;
77026;SDS011;65956;52.986;17.490;2023-07-13T11:59:53;9.30;;;2.30;;
77026;SDS011;65956;52.986;17.490;2023-07-13T12:02:42;4.40;;;2.40;;
77026;SDS011;65956;52.986;17.490;2023-07-13T12:05:12;4.50;;;2.70;;
77026;SDS011;65956;52.986;17.490;2023-07-13T12:07:40;5.30;;;2.60;;
77026;SDS011;65956;52.986;17.490;2023-07-13T12:12:48;5.80;;;2.60;;
77026;SDS011;65956;52.986;17.490;2023-07-13T12:15:44;4.80;;;2.30;;
77026;SDS011;65956;52.986;17.490;2023-07-13T12:18:18;4.10;;;2.30;;
77026;SDS011;65956;52.986;17.490;2023-07-13T12:20:48;4.60;;;2.30;;
77026;SDS011;65956;52.986;17.490;2023-07-13T12:23:23;6.10;;;2.60;;
77026;SDS011;65956;52.986;17.490;2023-07-13T12:25:51;5.50;;;2.80;;
77026;SDS011;65956;52.986;17.490;2023-07-13T12:28:22;7.20;;;2.40;;
77026;SDS011;65956;52.986;17.490;2023-07-13T12:31:00;5.00;;;2.90;;
77026;SDS011;65956;52.986;17.490;2023-07-13T12:33:28;6.20;;;2.40;;
77026;SDS011;65956;52.986;17.490;2023-07-13T12:35:57;4.60;;;1.80;;
77026;SDS011;65956;52.986;17.490;2023-07-13T12:38:25;5.70;;;2.50;;
77026;SDS011;65956;52.986;17.490;2023-07-13T12:40:51;5.00;;;2.10;;
77026;SDS011;65956;52.986;17.490;2023-07-13T12:43:19;4.00;;;2.20;;
77026;SDS011;65956;52.986;17.490;2023-07-13T12:48:24;4.50;;;2.50;;
77026;SDS011;65956;52.986;17.490;2023-07-13T12:50:53;4.80;;;2.20;;
77026;SDS011;65956;52.986;17.490;2023-07-13T12:53:27;3.90;;;2.20;;
77026;SDS011;65956;52.986;17.490;2023-07-13T12:55:57;5.30;;;2.70;;
77026;SDS011;65956;52.986;17.490;2023-07-13T12:58:32;3.80;;;2.00;;
77026;SDS011;65956;52.986;17.490;2023-07-13T13:01:03;3.80;;;1.70;;
77026;SDS011;65956;52.986;17.490;2023-07-13T13:03:32;5.00;;;1.60;;
77026;SDS011;65956;52.986;17.490;2023-07-13T13:06:06;4.30;;;1.30;;
77026;SDS011;65956;52.986;17.490;2023-07-13T13:08:47;4.70;;;1.70;;
77026;SDS011;65956;52.986;17.490;2023-07-13T13:11:18;3.80;;;1.50;;
77026;SDS011;65956;52.986;17.490;2023-07-13T13:13:45;3.60;;;1.50;;
77026;SDS011;65956;52.986;17.490;2023-07-13T13:16:19;3.20;;;1.20;;
77026;SDS011;65956;52.986;17.490;2023-07-13T13:18:49;5.80;;;2.60;;
77026;SDS011;65956;52.986;17.490;2023-07-13T13:21:17;3.00;;;1.20;;
77026;SDS011;65956;52.986;17.490;2023-07-13T13:23:44;5.60;;;1.40;;
77026;SDS011;65956;52.986;17.490;2023-07-13T13:26:12;4.30;;;1.30;;
77026;SDS011;65956;52.986;17.490;2023-07-13T13:28:41;2.90;;;1.20;;
77026;SDS011;65956;52.986;17.490;2023-07-13T13:31:13;3.80;;;1.30;;
77026;SDS011;65956;52.986;17.490;2023-07-13T13:33:42;3.60;;;1.20;;
77026;SDS011;65956;52.986;17.490;2023-07-13T13:38:44;4.40;;;1.80;;
77026;SDS011;65956;52.986;17.490;2023-07-13T13:41:12;3.60;;;1.20;;
77026;SDS011;65956;52.986;17.490;2023-07-13T13:43:40;8.10;;;4.30;;
77026;SDS011;65956;52.986;17.490;2023-07-13T13:46:23;6.30;;;3.20;;
77026;SDS011;65956;52.986;17.490;2023-07-13T13:48:55;5.40;;;2.30;;
77026;SDS011;65956;52.986;17.490;2023-07-13T13:51:22;5.20;;;2.50;;
77026;SDS011;65956;52.986;17.490;2023-07-13T13:53:50;5.60;;;3.30;;
77026;SDS011;65956;52.986;17.490;2023-07-13T13:56:17;7.00;;;4.60;;
77026;SDS011;65956;52.986;17.490;2023-07-13T13:58:44;3.50;;;1.40;;
77026;SDS011;65956;52.986;17.490;2023-07-13T14:01:12;4.50;;;1.90;;
77026;SDS011;65956;52.986;17.490;2023-07-13T14:03:42;5.20;;;1.60;;
77026;SDS011;65956;52.986;17.490;2023-07-13T14:06:12;4.00;;;1.70;;
77026;SDS011;65956;52.986;17.490;2023-07-13T14:08:39;2.90;;;1.30;;
77026;SDS011;65956;52.986;17.490;2023-07-13T14:11:05;3.30;;;1.50;;
77026;SDS011;65956;52.986;17.490;2023-07-13T14:14:12;4.00;;;1.60;;
77026;SDS011;65956;52.986;17.490;2023-07-13T14:16:31;4.00;;;1.40;;
77026;SDS011;65956;52.986;17.490;2023-07-13T14:18:59;5.90;;;1.20;;
77026;SDS011;65956;52.986;17.490;2023-07-13T14:21:27;2.70;;;1.10;;
77026;SDS011;65956;52.986;17.490;2023-07-13T14:23:54;3.40;;;1.20;;
77026;SDS011;65956;52.986;17.490;2023-07-13T14:26:24;6.50;;;3.20;;
77026;SDS011;65956;52.986;17.490;2023-07-13T14:28:53;3.10;;;1.30;;
77026;SDS011;65956;52.986;17.490;2023-07-13T14:31:22;4.90;;;1.50;;
77026;SDS011;65956;52.986;17.490;2023-07-13T14:33:49;2.90;;;1.10;;
77026;SDS011;65956;52.986;17.490;2023-07-13T14:38:59;4.40;;;1.80;;
77026;SDS011;65956;52.986;17.490;2023-07-13T14:41:35;4.10;;;1.80;;
77026;SDS011;65956;52.986;17.490;2023-07-13T14:44:01;4.00;;;1.80;;
77026;SDS011;65956;52.986;17.490;2023-07-13T14:46:31;3.00;;;1.20;;
77026;SDS011;65956;52.986;17.490;2023-07-13T14:49:12;3.70;;;1.20;;
77026;SDS011;65956;52.986;17.490;2023-07-13T14:51:45;3.50;;;1.30;;
77026;SDS011;65956;52.986;17.490;2023-07-13T14:54:11;3.70;;;1.20;;
77026;SDS011;65956;52.986;17.490;2023-07-13T14:56:37;3.60;;;1.40;;
77026;SDS011;65956;52.986;17.490;2023-07-13T14:59:03;3.50;;;1.30;;
77026;SDS011;65956;52.986;17.490;2023-07-13T15:01:30;4.40;;;1.50;;
77026;SDS011;65956;52.986;17.490;2023-07-13T15:03:57;4.00;;;1.50;;
77026;SDS011;65956;52.986;17.490;2023-07-13T15:06:24;3.80;;;1.40;;
77026;SDS011;65956;52.986;17.490;2023-07-13T15:08:50;3.60;;;1.30;;
77026;SDS011;65956;52.986;17.490;2023-07-13T15:11:16;3.70;;;1.40;;
77026;SDS011;65956;52.986;17.490;2023-07-13T15:13:42;3.80;;;1.40;;
77026;SDS011;65956;52.986;17.490;2023-07-13T15:16:15;5.00;;;1.50;;
77026;SDS011;65956;52.986;17.490;2023-07-13T15:18:44;3.50;;;1.50;;
77026;SDS011;65956;52.986;17.490;2023-07-13T15:21:13;5.70;;;1.30;;
77026;SDS011;65956;52.986;17.490;2023-07-13T15:23:45;2.90;;;1.10;;
77026;SDS011;65956;52.986;17.490;2023-07-13T15:26:15;4.20;;;1.40;;
77026;SDS011;65956;52.986;17.490;2023-07-13T15:28:43;3.30;;;1.20;;
77026;SDS011;65956;52.986;17.490;2023-07-13T15:31:31;3.40;;;1.40;;
77026;SDS011;65956;52.986;17.490;2023-07-13T15:33:59;3.40;;;1.30;;
77026;SDS011;65956;52.986;17.490;2023-07-13T15:36:26;3.70;;;1.60;;